TRA42A EHRD-LEIB
Flight info
| Callsign | TRA42A |
|---|---|
| Flight time | N/A |
| Altitude | 37000 |
| Route | WOODY N872 CIV DCT KOVIN DCT DUCRA DCT RESMI/N0466F390 DCT DEKOD DCT DISAK DCT DIRMO DCT ETAMO DCT ADEKA DCT MOKDI DCT MEN DCT BADAM DCT KANIG DCT KENAS DCT POS |
| Aircraft | B738/M-SDE2E3FGHIRWXY/LB1 |
Departure
| Time | 2026-05-06 14:45 |
|---|---|
| Airport | Rotterdam The Hague Airport (EHRD) |
Arrival
| Time | N/A |
|---|---|
| Airport | Ibiza Airport (LEIB) |
| Time | Latitude | Longitude | Altitude | Speed | Heading |
|---|---|---|---|---|---|
| 2026-05-06 14:25 | 51.95110 | 4.43488 | 1 ft | 0 kts | 327° |
| 2026-05-06 14:41 | 51.95111 | 4.43486 | 0 ft | 1 kts | 327° |
| 2026-05-06 14:41 | 51.95126 | 4.43472 | 0 ft | 5 kts | 328° |
| 2026-05-06 14:41 | 51.95168 | 4.43489 | 0 ft | 9 kts | 26° |
| 2026-05-06 14:42 | 51.95230 | 4.43450 | 0 ft | 12 kts | 326° |
| 2026-05-06 14:42 | 51.95241 | 4.43410 | 0 ft | 6 kts | 260° |
| 2026-05-06 14:42 | 51.95204 | 4.43312 | 0 ft | 15 kts | 236° |
| 2026-05-06 14:42 | 51.95144 | 4.43141 | 1 ft | 17 kts | 244° |
| 2026-05-06 14:43 | 51.95118 | 4.43055 | 0 ft | 5 kts | 245° |
| 2026-05-06 14:43 | 51.95113 | 4.43035 | 0 ft | 2 kts | 248° |
| 2026-05-06 14:43 | 51.95110 | 4.42978 | 0 ft | 10 kts | 281° |
| 2026-05-06 14:43 | 51.95183 | 4.42873 | 1 ft | 17 kts | 334° |
| 2026-05-06 14:44 | 51.95262 | 4.42954 | 1 ft | 18 kts | 61° |
| 2026-05-06 14:44 | 51.95454 | 4.43432 | -1 ft | 90 kts | 57° |
| 2026-05-06 14:44 | 51.95920 | 4.44595 | 93 ft | 148 kts | 55° |
| 2026-05-06 14:45 | 51.97036 | 4.47537 | 2013 ft | 141 kts | 57° |
| 2026-05-06 14:45 | 51.97527 | 4.48951 | 2693 ft | 154 kts | 59° |
| 2026-05-06 14:45 | 51.98118 | 4.50640 | 3041 ft | 187 kts | 59° |
| 2026-05-06 14:45 | 51.98803 | 4.52653 | 3263 ft | 220 kts | 61° |
| 2026-05-06 14:46 | 51.99558 | 4.55007 | 3665 ft | 245 kts | 62° |
| 2026-05-06 14:46 | 52.00147 | 4.57622 | 4530 ft | 252 kts | 80° |
| 2026-05-06 14:46 | 51.99906 | 4.60386 | 4839 ft | 253 kts | 110° |
| 2026-05-06 14:46 | 51.98851 | 4.62778 | 4875 ft | 269 kts | 134° |
| 2026-05-06 14:47 | 51.97292 | 4.64439 | 4898 ft | 272 kts | 150° |
| 2026-05-06 14:47 | 51.95599 | 4.65812 | 4891 ft | 272 kts | 151° |
| 2026-05-06 14:47 | 51.93754 | 4.66554 | 4974 ft | 279 kts | 181° |
| 2026-05-06 14:47 | 51.91886 | 4.65712 | 5734 ft | 283 kts | 210° |
| 2026-05-06 14:48 | 51.90428 | 4.63645 | 6705 ft | 277 kts | 234° |
| 2026-05-06 14:48 | 51.89306 | 4.61087 | 7617 ft | 278 kts | 238° |
| 2026-05-06 14:48 | 51.88227 | 4.58496 | 8410 ft | 283 kts | 238° |
| 2026-05-06 14:48 | 51.86956 | 4.56034 | 9238 ft | 290 kts | 217° |
| 2026-05-06 14:49 | 51.85082 | 4.54726 | 10061 ft | 294 kts | 195° |
| 2026-05-06 14:49 | 51.83050 | 4.53885 | 10534 ft | 313 kts | 195° |
| 2026-05-06 14:49 | 51.80846 | 4.53004 | 10744 ft | 338 kts | 195° |
| 2026-05-06 14:49 | 51.78474 | 4.52059 | 10915 ft | 361 kts | 195° |
| 2026-05-06 14:50 | 51.75979 | 4.51058 | 11249 ft | 377 kts | 195° |
| 2026-05-06 14:50 | 51.73404 | 4.50016 | 11830 ft | 384 kts | 195° |
| 2026-05-06 14:50 | 51.70845 | 4.48975 | 12611 ft | 386 kts | 196° |
| 2026-05-06 14:50 | 51.68227 | 4.47901 | 13372 ft | 389 kts | 196° |
| 2026-05-06 14:51 | 51.65590 | 4.46819 | 14072 ft | 393 kts | 195° |
| 2026-05-06 14:51 | 51.62927 | 4.45725 | 14785 ft | 396 kts | 196° |
| 2026-05-06 14:51 | 51.60240 | 4.44620 | 15450 ft | 401 kts | 196° |
| 2026-05-06 14:51 | 51.57517 | 4.43503 | 16140 ft | 404 kts | 195° |
| 2026-05-06 14:52 | 51.54777 | 4.42383 | 16868 ft | 407 kts | 195° |
| 2026-05-06 14:52 | 51.52014 | 4.41254 | 17537 ft | 412 kts | 195° |
| 2026-05-06 14:52 | 51.49226 | 4.40115 | 18163 ft | 416 kts | 195° |
| 2026-05-06 14:52 | 51.46408 | 4.38965 | 18787 ft | 418 kts | 195° |
| 2026-05-06 14:53 | 51.43587 | 4.37816 | 19446 ft | 418 kts | 195° |
| 2026-05-06 14:53 | 51.40758 | 4.36654 | 20028 ft | 421 kts | 197° |
| 2026-05-06 14:53 | 51.38014 | 4.35001 | 20590 ft | 422 kts | 206° |
| 2026-05-06 14:53 | 51.35390 | 4.32975 | 21135 ft | 424 kts | 208° |
| 2026-05-06 14:54 | 51.32747 | 4.30826 | 21605 ft | 429 kts | 208° |
| 2026-05-06 14:54 | 51.30089 | 4.28623 | 22217 ft | 429 kts | 208° |
| 2026-05-06 14:54 | 51.27428 | 4.26413 | 22759 ft | 432 kts | 208° |
| 2026-05-06 14:54 | 51.24741 | 4.24189 | 23127 ft | 438 kts | 208° |
| 2026-05-06 14:55 | 51.22013 | 4.21945 | 23585 ft | 440 kts | 208° |
| 2026-05-06 14:55 | 51.19308 | 4.19732 | 23851 ft | 436 kts | 208° |
| 2026-05-06 14:55 | 51.16626 | 4.17549 | 23879 ft | 441 kts | 208° |
| 2026-05-06 14:55 | 51.13877 | 4.15317 | 23891 ft | 444 kts | 208° |
| 2026-05-06 14:56 | 51.11117 | 4.13081 | 23891 ft | 443 kts | 208° |
| 2026-05-06 14:56 | 51.08369 | 4.10860 | 23915 ft | 443 kts | 207° |
| 2026-05-06 14:56 | 51.05607 | 4.08630 | 24197 ft | 446 kts | 208° |
| 2026-05-06 14:56 | 51.02843 | 4.06401 | 24784 ft | 443 kts | 208° |
| 2026-05-06 14:57 | 51.00089 | 4.04183 | 25238 ft | 446 kts | 207° |
| 2026-05-06 14:57 | 50.97305 | 4.01944 | 25541 ft | 450 kts | 207° |
| 2026-05-06 14:57 | 50.94515 | 3.99703 | 26035 ft | 449 kts | 207° |
| 2026-05-06 14:57 | 50.91724 | 3.97464 | 26431 ft | 450 kts | 207° |
| 2026-05-06 14:58 | 50.88952 | 3.95243 | 26769 ft | 453 kts | 207° |
| 2026-05-06 14:58 | 50.86136 | 3.92990 | 27224 ft | 453 kts | 207° |
| 2026-05-06 14:58 | 50.83321 | 3.90741 | 27591 ft | 454 kts | 207° |
| 2026-05-06 14:58 | 50.80485 | 3.88472 | 27855 ft | 458 kts | 207° |
| 2026-05-06 14:59 | 50.77663 | 3.86150 | 28321 ft | 456 kts | 207° |
| 2026-05-06 14:59 | 50.74906 | 3.83800 | 28984 ft | 439 kts | 207° |
| 2026-05-06 14:59 | 50.72258 | 3.81410 | 29530 ft | 438 kts | 208° |
| 2026-05-06 14:59 | 50.69690 | 3.79153 | 30794 ft | 392 kts | 208° |
| 2026-05-06 15:00 | 50.67295 | 3.77163 | 31739 ft | 386 kts | 205° |
| 2026-05-06 15:00 | 50.64834 | 3.75364 | 31953 ft | 394 kts | 204° |
| 2026-05-06 15:00 | 50.62302 | 3.73577 | 32048 ft | 402 kts | 204° |
| 2026-05-06 15:00 | 50.59727 | 3.71733 | 32150 ft | 411 kts | 205° |
| 2026-05-06 15:01 | 50.57144 | 3.69830 | 32298 ft | 418 kts | 205° |
| 2026-05-06 15:01 | 50.54499 | 3.67830 | 32410 ft | 425 kts | 206° |